PILOTS ONLINE: 481    ATC ONLINE: 53

KSDM - Brown Field Municipal Airport

Location

City San Diego
Country  United States
Latitude 32° 34' 20" N
Longitude 116° 58' 48" W
Elevation 526 ft
Type Medium Airport

Runways

08L/26R 7972 ft / 150 ft
08R/26L 3180 ft / 75 ft

Weather

METAR
2014/07/25 14:53
KSDM 251453Z VRB03KT 10SM CLR 21/18 A2989 RMK AO2 SLP115 T02060178 53004
TAF
No TAF available

Outbound flights

Inbound flights